首页
METAR-TAF:

METAR-TAF

机场 :

Monte Malanotte

Prato Nevoso, 意大利

纬度: 44-15N, 经度: 007-48E, 海拔: 1741米

当前天气观测

该预报发布于26分钟前的06:55 UTC
风速2节,风向多变
温度 15°C
湿度 88%
气压 1019 hPa
能見度: 8000

METAR: LIMY 010655Z VRB02KT 8000 NSC 15/13 Q1019 RMK FEW FEW200 VAL FOSCHIA VIS MIN 6000NE

时间: 09:21 (07:21 UTC)


TAF: 丢失

超过4000个机场的气象观测和天气预报(METAR&TAF报告)。

可查询的气象台以黄色和红色小点在地图上表示。

将鼠标移到小点上方,可查看气象台名称。

然后点击查看天气观测和预报。

如需切换地图:点击带黑十字的绿色按钮放大地图;点击带横线的绿色按钮缩小地图;或者点击绿色箭头查看邻近地区的地图。


METAR-TAF: